sensor_id;sensor_type;location;lat;lon;timestamp;P1;durP1;ratioP1;P2;durP2;ratioP2
35602;SDS011;21725;50.836;4.368;2023-04-25T00:00:07;12.77;;;3.95;;
35602;SDS011;21725;50.836;4.368;2023-04-25T00:03:09;12.70;;;3.88;;
35602;SDS011;21725;50.836;4.368;2023-04-25T00:06:21;17.45;;;4.57;;
35602;SDS011;21725;50.836;4.368;2023-04-25T00:09:24;15.10;;;5.25;;
35602;SDS011;21725;50.836;4.368;2023-04-25T00:12:34;12.57;;;4.22;;
35602;SDS011;21725;50.836;4.368;2023-04-25T00:15:42;22.45;;;4.38;;
35602;SDS011;21725;50.836;4.368;2023-04-25T00:18:56;18.23;;;5.55;;
35602;SDS011;21725;50.836;4.368;2023-04-25T00:22:09;15.27;;;4.25;;
35602;SDS011;21725;50.836;4.368;2023-04-25T00:25:20;11.70;;;4.18;;
35602;SDS011;21725;50.836;4.368;2023-04-25T00:28:29;18.40;;;5.05;;
35602;SDS011;21725;50.836;4.368;2023-04-25T00:31:40;11.20;;;4.55;;
35602;SDS011;21725;50.836;4.368;2023-04-25T00:34:51;17.77;;;5.93;;
35602;SDS011;21725;50.836;4.368;2023-04-25T00:38:02;11.85;;;4.28;;
35602;SDS011;21725;50.836;4.368;2023-04-25T00:41:06;16.30;;;4.55;;
35602;SDS011;21725;50.836;4.368;2023-04-25T00:44:10;13.52;;;4.40;;
35602;SDS011;21725;50.836;4.368;2023-04-25T00:47:39;21.73;;;6.45;;
35602;SDS011;21725;50.836;4.368;2023-04-25T00:50:41;16.02;;;5.55;;
35602;SDS011;21725;50.836;4.368;2023-04-25T00:53:46;20.85;;;6.28;;
35602;SDS011;21725;50.836;4.368;2023-04-25T00:56:51;20.48;;;5.63;;
35602;SDS011;21725;50.836;4.368;2023-04-25T01:00:06;22.98;;;5.63;;
35602;SDS011;21725;50.836;4.368;2023-04-25T01:03:19;18.88;;;5.93;;
35602;SDS011;21725;50.836;4.368;2023-04-25T01:06:41;17.77;;;4.50;;
35602;SDS011;21725;50.836;4.368;2023-04-25T01:09:47;20.27;;;7.00;;
35602;SDS011;21725;50.836;4.368;2023-04-25T01:12:59;20.45;;;5.40;;
35602;SDS011;21725;50.836;4.368;2023-04-25T01:16:11;16.85;;;5.07;;
35602;SDS011;21725;50.836;4.368;2023-04-25T01:19:16;17.90;;;6.18;;
35602;SDS011;21725;50.836;4.368;2023-04-25T01:22:49;32.78;;;6.38;;
35602;SDS011;21725;50.836;4.368;2023-04-25T01:26:02;14.57;;;5.10;;
35602;SDS011;21725;50.836;4.368;2023-04-25T01:29:11;16.40;;;6.65;;
35602;SDS011;21725;50.836;4.368;2023-04-25T01:32:24;21.88;;;5.57;;
35602;SDS011;21725;50.836;4.368;2023-04-25T01:35:39;24.52;;;6.43;;
35602;SDS011;21725;50.836;4.368;2023-04-25T01:38:47;18.77;;;5.97;;
35602;SDS011;21725;50.836;4.368;2023-04-25T01:41:54;18.00;;;5.22;;
35602;SDS011;21725;50.836;4.368;2023-04-25T01:45:03;17.95;;;4.80;;
35602;SDS011;21725;50.836;4.368;2023-04-25T01:48:12;14.68;;;4.90;;
35602;SDS011;21725;50.836;4.368;2023-04-25T01:51:23;16.58;;;7.10;;
35602;SDS011;21725;50.836;4.368;2023-04-25T01:54:24;17.40;;;4.35;;
35602;SDS011;21725;50.836;4.368;2023-04-25T01:57:54;14.50;;;4.85;;
35602;SDS011;21725;50.836;4.368;2023-04-25T02:01:00;14.70;;;4.57;;
35602;SDS011;21725;50.836;4.368;2023-04-25T02:04:34;14.93;;;6.18;;
35602;SDS011;21725;50.836;4.368;2023-04-25T02:07:45;16.25;;;5.57;;
35602;SDS011;21725;50.836;4.368;2023-04-25T02:10:47;17.38;;;4.35;;
35602;SDS011;21725;50.836;4.368;2023-04-25T02:13:51;13.38;;;5.05;;
35602;SDS011;21725;50.836;4.368;2023-04-25T02:17:04;14.38;;;4.15;;
35602;SDS011;21725;50.836;4.368;2023-04-25T02:20:12;20.25;;;6.18;;
35602;SDS011;21725;50.836;4.368;2023-04-25T02:23:15;24.83;;;5.18;;
35602;SDS011;21725;50.836;4.368;2023-04-25T02:26:43;17.85;;;5.40;;
35602;SDS011;21725;50.836;4.368;2023-04-25T02:30:08;21.48;;;6.90;;
35602;SDS011;21725;50.836;4.368;2023-04-25T02:33:13;23.13;;;7.25;;
35602;SDS011;21725;50.836;4.368;2023-04-25T02:36:24;14.05;;;4.63;;
35602;SDS011;21725;50.836;4.368;2023-04-25T02:39:34;16.67;;;5.00;;
35602;SDS011;21725;50.836;4.368;2023-04-25T02:42:37;17.38;;;5.07;;
35602;SDS011;21725;50.836;4.368;2023-04-25T02:45:38;17.90;;;5.53;;
35602;SDS011;21725;50.836;4.368;2023-04-25T02:48:44;17.25;;;5.97;;
35602;SDS011;21725;50.836;4.368;2023-04-25T02:51:52;19.55;;;5.18;;
35602;SDS011;21725;50.836;4.368;2023-04-25T02:55:04;19.60;;;5.55;;
35602;SDS011;21725;50.836;4.368;2023-04-25T02:58:16;17.15;;;5.60;;
35602;SDS011;21725;50.836;4.368;2023-04-25T03:01:23;16.02;;;4.75;;
35602;SDS011;21725;50.836;4.368;2023-04-25T03:04:29;18.00;;;5.55;;
35602;SDS011;21725;50.836;4.368;2023-04-25T03:07:32;19.45;;;7.35;;
35602;SDS011;21725;50.836;4.368;2023-04-25T03:10:44;19.85;;;4.68;;
35602;SDS011;21725;50.836;4.368;2023-04-25T03:13:50;18.45;;;5.28;;
35602;SDS011;21725;50.836;4.368;2023-04-25T03:17:08;17.88;;;5.35;;
35602;SDS011;21725;50.836;4.368;2023-04-25T03:20:09;20.05;;;5.10;;
35602;SDS011;21725;50.836;4.368;2023-04-25T03:23:15;23.77;;;5.78;;
35602;SDS011;21725;50.836;4.368;2023-04-25T03:26:16;21.13;;;6.82;;
35602;SDS011;21725;50.836;4.368;2023-04-25T03:32:40;29.40;;;6.90;;
35602;SDS011;21725;50.836;4.368;2023-04-25T03:36:01;17.23;;;5.68;;
35602;SDS011;21725;50.836;4.368;2023-04-25T03:39:11;19.83;;;5.32;;
35602;SDS011;21725;50.836;4.368;2023-04-25T03:42:17;18.25;;;5.97;;
35602;SDS011;21725;50.836;4.368;2023-04-25T03:45:33;21.08;;;5.95;;
35602;SDS011;21725;50.836;4.368;2023-04-25T03:48:51;17.92;;;4.80;;
35602;SDS011;21725;50.836;4.368;2023-04-25T03:52:14;25.45;;;5.97;;
35602;SDS011;21725;50.836;4.368;2023-04-25T03:55:15;23.53;;;6.27;;
35602;SDS011;21725;50.836;4.368;2023-04-25T03:58:19;18.70;;;5.75;;
35602;SDS011;21725;50.836;4.368;2023-04-25T04:01:26;22.98;;;6.32;;
35602;SDS011;21725;50.836;4.368;2023-04-25T04:04:37;16.77;;;4.47;;
35602;SDS011;21725;50.836;4.368;2023-04-25T04:07:58;18.85;;;5.93;;
35602;SDS011;21725;50.836;4.368;2023-04-25T04:14:33;16.95;;;4.32;;
35602;SDS011;21725;50.836;4.368;2023-04-25T04:17:44;15.60;;;5.72;;
35602;SDS011;21725;50.836;4.368;2023-04-25T04:21:01;18.50;;;4.60;;
35602;SDS011;21725;50.836;4.368;2023-04-25T04:27:29;11.90;;;4.70;;
35602;SDS011;21725;50.836;4.368;2023-04-25T04:30:38;21.38;;;4.93;;
35602;SDS011;21725;50.836;4.368;2023-04-25T04:33:42;20.73;;;5.70;;
35602;SDS011;21725;50.836;4.368;2023-04-25T04:36:51;16.42;;;5.90;;
35602;SDS011;21725;50.836;4.368;2023-04-25T04:40:09;17.60;;;6.00;;
35602;SDS011;21725;50.836;4.368;2023-04-25T04:43:18;24.27;;;6.90;;
35602;SDS011;21725;50.836;4.368;2023-04-25T04:46:29;19.27;;;5.88;;
35602;SDS011;21725;50.836;4.368;2023-04-25T04:50:03;20.17;;;4.97;;
35602;SDS011;21725;50.836;4.368;2023-04-25T04:53:04;22.77;;;5.97;;
35602;SDS011;21725;50.836;4.368;2023-04-25T04:56:07;19.63;;;6.38;;
35602;SDS011;21725;50.836;4.368;2023-04-25T04:59:38;27.17;;;6.25;;
35602;SDS011;21725;50.836;4.368;2023-04-25T05:02:43;18.40;;;6.60;;
35602;SDS011;21725;50.836;4.368;2023-04-25T05:05:47;16.73;;;4.95;;
35602;SDS011;21725;50.836;4.368;2023-04-25T05:08:56;15.02;;;5.50;;
35602;SDS011;21725;50.836;4.368;2023-04-25T05:12:25;13.07;;;5.82;;
35602;SDS011;21725;50.836;4.368;2023-04-25T05:15:26;20.75;;;5.45;;
35602;SDS011;21725;50.836;4.368;2023-04-25T05:18:30;14.55;;;5.03;;
35602;SDS011;21725;50.836;4.368;2023-04-25T05:21:42;16.38;;;5.13;;
35602;SDS011;21725;50.836;4.368;2023-04-25T05:24:46;20.83;;;7.68;;
35602;SDS011;21725;50.836;4.368;2023-04-25T05:27:57;14.50;;;4.85;;
35602;SDS011;21725;50.836;4.368;2023-04-25T05:31:02;16.83;;;6.18;;
35602;SDS011;21725;50.836;4.368;2023-04-25T05:34:09;15.18;;;5.55;;
35602;SDS011;21725;50.836;4.368;2023-04-25T05:37:10;13.48;;;5.35;;
35602;SDS011;21725;50.836;4.368;2023-04-25T05:40:11;20.15;;;4.95;;
35602;SDS011;21725;50.836;4.368;2023-04-25T05:43:24;14.98;;;6.00;;
35602;SDS011;21725;50.836;4.368;2023-04-25T05:46:45;17.73;;;5.13;;
35602;SDS011;21725;50.836;4.368;2023-04-25T05:49:51;18.20;;;5.10;;
35602;SDS011;21725;50.836;4.368;2023-04-25T05:53:03;14.85;;;4.93;;
35602;SDS011;21725;50.836;4.368;2023-04-25T05:56:06;19.17;;;5.15;;
35602;SDS011;21725;50.836;4.368;2023-04-25T05:59:13;18.05;;;4.93;;
35602;SDS011;21725;50.836;4.368;2023-04-25T06:02:17;15.50;;;5.07;;
35602;SDS011;21725;50.836;4.368;2023-04-25T06:05:21;17.75;;;5.82;;
35602;SDS011;21725;50.836;4.368;2023-04-25T06:08:22;21.30;;;4.85;;
35602;SDS011;21725;50.836;4.368;2023-04-25T06:11:25;13.90;;;5.47;;
35602;SDS011;21725;50.836;4.368;2023-04-25T06:14:36;19.17;;;6.72;;
35602;SDS011;21725;50.836;4.368;2023-04-25T06:17:40;29.55;;;13.32;;
35602;SDS011;21725;50.836;4.368;2023-04-25T06:20:41;25.08;;;6.50;;
35602;SDS011;21725;50.836;4.368;2023-04-25T06:23:44;33.35;;;6.82;;
35602;SDS011;21725;50.836;4.368;2023-04-25T06:26:48;18.00;;;6.47;;
35602;SDS011;21725;50.836;4.368;2023-04-25T06:30:08;25.52;;;7.60;;
35602;SDS011;21725;50.836;4.368;2023-04-25T06:33:11;18.73;;;7.10;;
35602;SDS011;21725;50.836;4.368;2023-04-25T06:36:17;27.42;;;16.08;;
35602;SDS011;21725;50.836;4.368;2023-04-25T06:39:24;32.95;;;16.73;;
35602;SDS011;21725;50.836;4.368;2023-04-25T06:42:26;14.80;;;6.18;;
35602;SDS011;21725;50.836;4.368;2023-04-25T06:45:30;15.75;;;8.10;;
35602;SDS011;21725;50.836;4.368;2023-04-25T06:48:33;16.13;;;5.57;;
35602;SDS011;21725;50.836;4.368;2023-04-25T06:51:44;17.75;;;7.07;;
35602;SDS011;21725;50.836;4.368;2023-04-25T06:54:48;34.67;;;5.57;;
35602;SDS011;21725;50.836;4.368;2023-04-25T06:57:54;14.52;;;5.35;;
35602;SDS011;21725;50.836;4.368;2023-04-25T07:01:07;27.42;;;12.80;;
35602;SDS011;21725;50.836;4.368;2023-04-25T07:04:27;20.88;;;8.57;;
35602;SDS011;21725;50.836;4.368;2023-04-25T07:07:34;64.53;;;32.53;;
35602;SDS011;21725;50.836;4.368;2023-04-25T07:10:35;62.20;;;36.20;;
35602;SDS011;21725;50.836;4.368;2023-04-25T07:13:54;52.85;;;29.52;;
35602;SDS011;21725;50.836;4.368;2023-04-25T07:17:23;23.75;;;10.35;;
35602;SDS011;21725;50.836;4.368;2023-04-25T07:20:24;27.88;;;12.32;;
35602;SDS011;21725;50.836;4.368;2023-04-25T07:23:57;20.88;;;10.98;;
35602;SDS011;21725;50.836;4.368;2023-04-25T07:27:03;11.93;;;4.13;;
35602;SDS011;21725;50.836;4.368;2023-04-25T07:30:03;20.67;;;5.55;;
35602;SDS011;21725;50.836;4.368;2023-04-25T07:33:15;8.98;;;4.32;;
35602;SDS011;21725;50.836;4.368;2023-04-25T07:36:16;16.08;;;4.65;;
35602;SDS011;21725;50.836;4.368;2023-04-25T07:39:27;26.75;;;16.98;;
35602;SDS011;21725;50.836;4.368;2023-04-25T07:42:57;41.13;;;24.10;;
35602;SDS011;21725;50.836;4.368;2023-04-25T07:46:16;47.67;;;25.58;;
35602;SDS011;21725;50.836;4.368;2023-04-25T07:49:31;15.20;;;6.45;;
35602;SDS011;21725;50.836;4.368;2023-04-25T07:52:37;20.45;;;8.93;;
35602;SDS011;21725;50.836;4.368;2023-04-25T07:55:42;16.83;;;4.85;;
35602;SDS011;21725;50.836;4.368;2023-04-25T07:58:50;11.35;;;3.90;;
35602;SDS011;21725;50.836;4.368;2023-04-25T08:02:01;12.13;;;4.78;;
35602;SDS011;21725;50.836;4.368;2023-04-25T08:05:05;20.17;;;9.88;;
35602;SDS011;21725;50.836;4.368;2023-04-25T08:08:26;10.48;;;4.82;;
35602;SDS011;21725;50.836;4.368;2023-04-25T08:11:31;8.88;;;3.13;;
35602;SDS011;21725;50.836;4.368;2023-04-25T08:14:41;12.30;;;3.85;;
35602;SDS011;21725;50.836;4.368;2023-04-25T08:17:45;14.50;;;5.03;;
35602;SDS011;21725;50.836;4.368;2023-04-25T08:20:53;18.80;;;5.80;;
35602;SDS011;21725;50.836;4.368;2023-04-25T08:23:54;17.75;;;3.65;;
35602;SDS011;21725;50.836;4.368;2023-04-25T08:27:00;15.27;;;6.07;;
35602;SDS011;21725;50.836;4.368;2023-04-25T08:30:21;11.10;;;3.80;;
35602;SDS011;21725;50.836;4.368;2023-04-25T08:33:24;9.57;;;4.05;;
35602;SDS011;21725;50.836;4.368;2023-04-25T08:36:33;15.68;;;5.95;;
35602;SDS011;21725;50.836;4.368;2023-04-25T08:39:44;9.60;;;4.00;;
35602;SDS011;21725;50.836;4.368;2023-04-25T08:42:54;22.75;;;9.00;;
35602;SDS011;21725;50.836;4.368;2023-04-25T08:53:00;12.40;;;3.88;;
35602;SDS011;21725;50.836;4.368;2023-04-25T08:56:19;17.10;;;4.18;;
35602;SDS011;21725;50.836;4.368;2023-04-25T08:59:23;18.42;;;5.45;;
35602;SDS011;21725;50.836;4.368;2023-04-25T09:02:24;13.68;;;4.95;;
35602;SDS011;21725;50.836;4.368;2023-04-25T09:05:34;10.00;;;4.10;;
35602;SDS011;21725;50.836;4.368;2023-04-25T09:08:37;13.70;;;3.80;;
35602;SDS011;21725;50.836;4.368;2023-04-25T09:11:42;16.48;;;8.88;;
35602;SDS011;21725;50.836;4.368;2023-04-25T09:15:02;14.45;;;5.68;;
35602;SDS011;21725;50.836;4.368;2023-04-25T09:18:07;13.63;;;5.28;;
35602;SDS011;21725;50.836;4.368;2023-04-25T09:21:23;9.80;;;4.38;;
35602;SDS011;21725;50.836;4.368;2023-04-25T09:24:38;11.90;;;2.92;;
35602;SDS011;21725;50.836;4.368;2023-04-25T09:27:55;8.02;;;3.30;;
35602;SDS011;21725;50.836;4.368;2023-04-25T09:30:56;8.60;;;3.13;;
35602;SDS011;21725;50.836;4.368;2023-04-25T09:34:02;12.85;;;4.95;;
35602;SDS011;21725;50.836;4.368;2023-04-25T09:37:03;8.75;;;3.08;;
35602;SDS011;21725;50.836;4.368;2023-04-25T09:40:20;8.07;;;3.53;;
35602;SDS011;21725;50.836;4.368;2023-04-25T09:43:24;7.30;;;2.75;;
35602;SDS011;21725;50.836;4.368;2023-04-25T09:46:32;16.50;;;3.42;;
35602;SDS011;21725;50.836;4.368;2023-04-25T09:49:53;13.77;;;3.70;;
35602;SDS011;21725;50.836;4.368;2023-04-25T09:53:02;7.18;;;3.17;;
35602;SDS011;21725;50.836;4.368;2023-04-25T09:56:08;13.35;;;3.35;;
35602;SDS011;21725;50.836;4.368;2023-04-25T09:59:31;6.93;;;2.53;;
35602;SDS011;21725;50.836;4.368;2023-04-25T10:02:41;8.50;;;2.33;;
35602;SDS011;21725;50.836;4.368;2023-04-25T10:05:54;8.98;;;3.03;;
35602;SDS011;21725;50.836;4.368;2023-04-25T10:08:59;6.93;;;2.42;;
35602;SDS011;21725;50.836;4.368;2023-04-25T10:12:00;8.10;;;2.38;;
35602;SDS011;21725;50.836;4.368;2023-04-25T10:15:03;9.43;;;2.75;;
35602;SDS011;21725;50.836;4.368;2023-04-25T10:18:04;8.15;;;2.47;;
35602;SDS011;21725;50.836;4.368;2023-04-25T10:21:24;9.65;;;3.60;;
35602;SDS011;21725;50.836;4.368;2023-04-25T10:24:37;6.60;;;2.15;;
35602;SDS011;21725;50.836;4.368;2023-04-25T10:27:52;5.45;;;3.10;;
35602;SDS011;21725;50.836;4.368;2023-04-25T10:34:37;6.82;;;2.78;;
35602;SDS011;21725;50.836;4.368;2023-04-25T10:41:06;8.30;;;3.75;;
35602;SDS011;21725;50.836;4.368;2023-04-25T10:44:09;9.57;;;3.03;;
35602;SDS011;21725;50.836;4.368;2023-04-25T10:47:10;12.45;;;2.92;;
35602;SDS011;21725;50.836;4.368;2023-04-25T10:50:11;7.30;;;3.55;;
35602;SDS011;21725;50.836;4.368;2023-04-25T10:53:14;7.90;;;2.50;;
35602;SDS011;21725;50.836;4.368;2023-04-25T10:56:18;11.30;;;2.38;;
35602;SDS011;21725;50.836;4.368;2023-04-25T10:59:28;9.80;;;3.17;;
35602;SDS011;21725;50.836;4.368;2023-04-25T11:02:32;5.70;;;2.40;;
35602;SDS011;21725;50.836;4.368;2023-04-25T11:05:38;7.25;;;2.75;;
35602;SDS011;21725;50.836;4.368;2023-04-25T11:08:50;10.57;;;2.75;;
35602;SDS011;21725;50.836;4.368;2023-04-25T11:12:01;12.13;;;4.05;;
35602;SDS011;21725;50.836;4.368;2023-04-25T11:15:06;13.60;;;3.70;;
35602;SDS011;21725;50.836;4.368;2023-04-25T11:18:16;11.18;;;4.05;;
35602;SDS011;21725;50.836;4.368;2023-04-25T11:21:25;13.30;;;4.22;;
35602;SDS011;21725;50.836;4.368;2023-04-25T11:24:28;6.45;;;2.50;;
35602;SDS011;21725;50.836;4.368;2023-04-25T11:27:30;10.00;;;3.38;;
35602;SDS011;21725;50.836;4.368;2023-04-25T11:30:33;10.75;;;3.65;;
35602;SDS011;21725;50.836;4.368;2023-04-25T11:33:34;13.10;;;3.85;;
35602;SDS011;21725;50.836;4.368;2023-04-25T11:36:40;10.65;;;2.67;;
35602;SDS011;21725;50.836;4.368;2023-04-25T11:39:44;8.57;;;2.97;;
35602;SDS011;21725;50.836;4.368;2023-04-25T11:42:50;6.40;;;2.33;;
35602;SDS011;21725;50.836;4.368;2023-04-25T11:45:54;8.00;;;2.75;;
35602;SDS011;21725;50.836;4.368;2023-04-25T11:48:55;7.70;;;2.47;;
35602;SDS011;21725;50.836;4.368;2023-04-25T11:52:00;6.10;;;2.55;;
35602;SDS011;21725;50.836;4.368;2023-04-25T11:55:14;5.72;;;2.83;;
35602;SDS011;21725;50.836;4.368;2023-04-25T11:58:16;5.95;;;2.28;;
35602;SDS011;21725;50.836;4.368;2023-04-25T12:01:29;8.60;;;2.03;;
35602;SDS011;21725;50.836;4.368;2023-04-25T12:04:39;9.30;;;2.20;;
35602;SDS011;21725;50.836;4.368;2023-04-25T12:07:52;8.00;;;2.35;;
35602;SDS011;21725;50.836;4.368;2023-04-25T12:10:58;8.73;;;2.20;;
35602;SDS011;21725;50.836;4.368;2023-04-25T12:14:03;4.63;;;2.38;;
35602;SDS011;21725;50.836;4.368;2023-04-25T12:17:08;10.57;;;3.92;;
35602;SDS011;21725;50.836;4.368;2023-04-25T12:20:13;9.18;;;5.30;;
35602;SDS011;21725;50.836;4.368;2023-04-25T12:23:27;15.65;;;4.95;;
35602;SDS011;21725;50.836;4.368;2023-04-25T12:26:45;6.80;;;2.60;;
35602;SDS011;21725;50.836;4.368;2023-04-25T12:29:55;5.78;;;2.88;;
35602;SDS011;21725;50.836;4.368;2023-04-25T12:32:58;6.45;;;2.33;;
35602;SDS011;21725;50.836;4.368;2023-04-25T12:36:07;10.57;;;2.53;;
35602;SDS011;21725;50.836;4.368;2023-04-25T12:39:13;4.32;;;1.90;;
35602;SDS011;21725;50.836;4.368;2023-04-25T12:42:21;7.85;;;2.20;;
35602;SDS011;21725;50.836;4.368;2023-04-25T12:45:27;5.65;;;3.38;;
35602;SDS011;21725;50.836;4.368;2023-04-25T12:48:28;4.07;;;1.95;;
35602;SDS011;21725;50.836;4.368;2023-04-25T12:51:29;11.05;;;3.38;;
35602;SDS011;21725;50.836;4.368;2023-04-25T12:54:32;8.13;;;2.72;;
35602;SDS011;21725;50.836;4.368;2023-04-25T12:57:40;6.50;;;2.33;;
35602;SDS011;21725;50.836;4.368;2023-04-25T13:00:44;8.25;;;2.85;;
35602;SDS011;21725;50.836;4.368;2023-04-25T13:03:51;9.32;;;3.15;;
35602;SDS011;21725;50.836;4.368;2023-04-25T13:06:52;8.90;;;3.22;;
35602;SDS011;21725;50.836;4.368;2023-04-25T13:09:56;8.38;;;3.38;;
35602;SDS011;21725;50.836;4.368;2023-04-25T13:13:07;7.15;;;2.88;;
35602;SDS011;21725;50.836;4.368;2023-04-25T13:16:08;8.98;;;2.55;;
35602;SDS011;21725;50.836;4.368;2023-04-25T13:19:13;4.72;;;1.77;;
35602;SDS011;21725;50.836;4.368;2023-04-25T13:22:17;5.07;;;1.80;;
35602;SDS011;21725;50.836;4.368;2023-04-25T13:25:37;13.52;;;3.58;;
35602;SDS011;21725;50.836;4.368;2023-04-25T13:28:55;8.00;;;4.53;;
35602;SDS011;21725;50.836;4.368;2023-04-25T13:31:57;7.13;;;3.13;;
35602;SDS011;21725;50.836;4.368;2023-04-25T13:35:01;10.10;;;2.15;;
35602;SDS011;21725;50.836;4.368;2023-04-25T13:38:07;5.72;;;2.25;;
35602;SDS011;21725;50.836;4.368;2023-04-25T13:41:08;4.68;;;2.33;;
35602;SDS011;21725;50.836;4.368;2023-04-25T13:44:11;5.60;;;2.28;;
35602;SDS011;21725;50.836;4.368;2023-04-25T13:47:14;3.10;;;1.60;;
35602;SDS011;21725;50.836;4.368;2023-04-25T13:50:15;8.13;;;3.00;;
35602;SDS011;21725;50.836;4.368;2023-04-25T13:53:33;7.28;;;2.25;;
35602;SDS011;21725;50.836;4.368;2023-04-25T13:56:41;7.00;;;2.78;;
35602;SDS011;21725;50.836;4.368;2023-04-25T13:59:42;9.68;;;3.67;;
35602;SDS011;21725;50.836;4.368;2023-04-25T14:02:43;7.32;;;2.35;;
35602;SDS011;21725;50.836;4.368;2023-04-25T14:05:47;10.18;;;2.55;;
35602;SDS011;21725;50.836;4.368;2023-04-25T14:09:00;4.95;;;2.05;;
35602;SDS011;21725;50.836;4.368;2023-04-25T14:12:14;5.30;;;2.40;;
35602;SDS011;21725;50.836;4.368;2023-04-25T14:15:17;5.60;;;2.28;;
35602;SDS011;21725;50.836;4.368;2023-04-25T14:18:18;9.48;;;2.85;;
35602;SDS011;21725;50.836;4.368;2023-04-25T14:21:19;8.32;;;2.90;;
35602;SDS011;21725;50.836;4.368;2023-04-25T14:24:22;6.97;;;2.53;;
35602;SDS011;21725;50.836;4.368;2023-04-25T14:27:25;5.45;;;1.92;;
35602;SDS011;21725;50.836;4.368;2023-04-25T14:30:36;5.07;;;2.10;;
35602;SDS011;21725;50.836;4.368;2023-04-25T14:33:39;5.88;;;2.35;;
35602;SDS011;21725;50.836;4.368;2023-04-25T14:36:43;7.72;;;3.05;;
35602;SDS011;21725;50.836;4.368;2023-04-25T14:40:04;5.43;;;1.80;;
35602;SDS011;21725;50.836;4.368;2023-04-25T14:43:12;5.63;;;2.10;;
35602;SDS011;21725;50.836;4.368;2023-04-25T14:46:33;7.55;;;2.13;;
35602;SDS011;21725;50.836;4.368;2023-04-25T14:49:43;5.13;;;2.17;;
35602;SDS011;21725;50.836;4.368;2023-04-25T14:52:55;7.95;;;2.95;;
35602;SDS011;21725;50.836;4.368;2023-04-25T14:56:01;5.30;;;2.35;;
35602;SDS011;21725;50.836;4.368;2023-04-25T14:59:05;6.82;;;3.50;;
35602;SDS011;21725;50.836;4.368;2023-04-25T15:02:11;8.27;;;2.75;;
35602;SDS011;21725;50.836;4.368;2023-04-25T15:05:37;7.22;;;2.53;;
35602;SDS011;21725;50.836;4.368;2023-04-25T15:08:39;6.95;;;2.40;;
35602;SDS011;21725;50.836;4.368;2023-04-25T15:12:01;6.07;;;2.42;;
35602;SDS011;21725;50.836;4.368;2023-04-25T15:15:11;4.20;;;2.25;;
35602;SDS011;21725;50.836;4.368;2023-04-25T15:18:15;6.45;;;2.28;;
35602;SDS011;21725;50.836;4.368;2023-04-25T15:21:27;7.03;;;2.42;;
35602;SDS011;21725;50.836;4.368;2023-04-25T15:24:30;6.70;;;2.17;;
35602;SDS011;21725;50.836;4.368;2023-04-25T15:27:34;7.00;;;2.53;;
35602;SDS011;21725;50.836;4.368;2023-04-25T15:30:51;11.32;;;2.30;;
35602;SDS011;21725;50.836;4.368;2023-04-25T15:33:57;6.38;;;2.17;;
35602;SDS011;21725;50.836;4.368;2023-04-25T15:37:02;8.38;;;2.03;;
35602;SDS011;21725;50.836;4.368;2023-04-25T15:43:14;6.75;;;2.38;;
35602;SDS011;21725;50.836;4.368;2023-04-25T15:46:25;5.50;;;1.95;;
35602;SDS011;21725;50.836;4.368;2023-04-25T15:49:26;4.60;;;1.95;;
35602;SDS011;21725;50.836;4.368;2023-04-25T15:52:32;5.00;;;2.28;;
35602;SDS011;21725;50.836;4.368;2023-04-25T15:55:41;9.82;;;2.88;;
35602;SDS011;21725;50.836;4.368;2023-04-25T15:58:44;8.85;;;2.42;;
35602;SDS011;21725;50.836;4.368;2023-04-25T16:01:44;5.07;;;2.50;;
35602;SDS011;21725;50.836;4.368;2023-04-25T16:04:53;9.00;;;2.47;;
35602;SDS011;21725;50.836;4.368;2023-04-25T16:08:06;6.72;;;2.28;;
35602;SDS011;21725;50.836;4.368;2023-04-25T16:11:08;6.10;;;2.33;;
35602;SDS011;21725;50.836;4.368;2023-04-25T16:14:08;6.60;;;2.15;;
35602;SDS011;21725;50.836;4.368;2023-04-25T16:17:20;5.75;;;2.20;;
35602;SDS011;21725;50.836;4.368;2023-04-25T16:20:23;9.77;;;3.95;;
35602;SDS011;21725;50.836;4.368;2023-04-25T16:23:29;9.15;;;3.33;;
35602;SDS011;21725;50.836;4.368;2023-04-25T16:26:39;9.63;;;2.13;;
35602;SDS011;21725;50.836;4.368;2023-04-25T16:29:42;9.13;;;2.30;;
35602;SDS011;21725;50.836;4.368;2023-04-25T16:32:50;8.43;;;2.53;;
35602;SDS011;21725;50.836;4.368;2023-04-25T16:35:52;7.25;;;2.08;;
35602;SDS011;21725;50.836;4.368;2023-04-25T16:42:40;5.95;;;2.17;;
35602;SDS011;21725;50.836;4.368;2023-04-25T16:46:07;3.28;;;1.80;;
35602;SDS011;21725;50.836;4.368;2023-04-25T16:49:10;7.05;;;2.35;;
35602;SDS011;21725;50.836;4.368;2023-04-25T16:52:13;8.25;;;2.58;;
35602;SDS011;21725;50.836;4.368;2023-04-25T16:55:34;7.82;;;2.55;;
35602;SDS011;21725;50.836;4.368;2023-04-25T16:58:46;5.13;;;2.45;;
35602;SDS011;21725;50.836;4.368;2023-04-25T17:01:57;4.15;;;1.80;;
35602;SDS011;21725;50.836;4.368;2023-04-25T17:05:04;10.20;;;2.72;;
35602;SDS011;21725;50.836;4.368;2023-04-25T17:08:11;10.02;;;3.75;;
35602;SDS011;21725;50.836;4.368;2023-04-25T17:11:14;6.70;;;2.67;;
35602;SDS011;21725;50.836;4.368;2023-04-25T17:14:25;6.80;;;2.80;;
35602;SDS011;21725;50.836;4.368;2023-04-25T17:17:32;8.93;;;2.53;;
35602;SDS011;21725;50.836;4.368;2023-04-25T17:20:32;11.48;;;3.25;;
35602;SDS011;21725;50.836;4.368;2023-04-25T17:23:36;10.13;;;3.40;;
35602;SDS011;21725;50.836;4.368;2023-04-25T17:26:44;11.73;;;2.88;;
35602;SDS011;21725;50.836;4.368;2023-04-25T17:29:55;6.72;;;2.30;;
35602;SDS011;21725;50.836;4.368;2023-04-25T17:33:07;6.47;;;3.03;;
35602;SDS011;21725;50.836;4.368;2023-04-25T17:36:24;12.93;;;3.85;;
35602;SDS011;21725;50.836;4.368;2023-04-25T17:39:30;5.88;;;2.97;;
35602;SDS011;21725;50.836;4.368;2023-04-25T17:42:54;9.52;;;2.80;;
35602;SDS011;21725;50.836;4.368;2023-04-25T17:46:05;8.88;;;2.78;;
35602;SDS011;21725;50.836;4.368;2023-04-25T17:49:06;5.00;;;2.28;;
35602;SDS011;21725;50.836;4.368;2023-04-25T17:52:26;6.53;;;2.45;;
35602;SDS011;21725;50.836;4.368;2023-04-25T17:55:37;10.00;;;2.80;;
35602;SDS011;21725;50.836;4.368;2023-04-25T17:58:44;10.65;;;3.38;;
35602;SDS011;21725;50.836;4.368;2023-04-25T18:01:49;8.32;;;2.15;;
35602;SDS011;21725;50.836;4.368;2023-04-25T18:04:50;9.55;;;3.08;;
35602;SDS011;21725;50.836;4.368;2023-04-25T18:07:55;7.50;;;2.40;;
35602;SDS011;21725;50.836;4.368;2023-04-25T18:10:56;6.32;;;2.78;;
35602;SDS011;21725;50.836;4.368;2023-04-25T18:13:58;6.18;;;3.25;;
35602;SDS011;21725;50.836;4.368;2023-04-25T18:16:59;6.32;;;2.30;;
35602;SDS011;21725;50.836;4.368;2023-04-25T18:20:00;9.15;;;2.90;;
35602;SDS011;21725;50.836;4.368;2023-04-25T18:23:08;10.68;;;3.70;;
35602;SDS011;21725;50.836;4.368;2023-04-25T18:26:09;7.13;;;2.97;;
35602;SDS011;21725;50.836;4.368;2023-04-25T18:29:11;5.20;;;2.15;;
35602;SDS011;21725;50.836;4.368;2023-04-25T18:32:12;8.45;;;2.83;;
35602;SDS011;21725;50.836;4.368;2023-04-25T18:35:13;5.57;;;2.55;;
35602;SDS011;21725;50.836;4.368;2023-04-25T18:38:14;8.40;;;2.28;;
35602;SDS011;21725;50.836;4.368;2023-04-25T18:41:15;4.00;;;1.58;;
35602;SDS011;21725;50.836;4.368;2023-04-25T18:44:16;6.32;;;1.83;;
35602;SDS011;21725;50.836;4.368;2023-04-25T18:47:16;9.00;;;3.08;;
35602;SDS011;21725;50.836;4.368;2023-04-25T18:50:17;5.13;;;2.95;;
35602;SDS011;21725;50.836;4.368;2023-04-25T18:53:20;7.45;;;1.92;;
35602;SDS011;21725;50.836;4.368;2023-04-25T18:56:21;10.05;;;2.47;;
35602;SDS011;21725;50.836;4.368;2023-04-25T18:59:24;8.60;;;2.53;;
35602;SDS011;21725;50.836;4.368;2023-04-25T19:02:25;8.85;;;2.28;;
35602;SDS011;21725;50.836;4.368;2023-04-25T19:05:26;11.25;;;3.00;;
35602;SDS011;21725;50.836;4.368;2023-04-25T19:08:27;7.28;;;2.63;;
35602;SDS011;21725;50.836;4.368;2023-04-25T19:11:28;8.43;;;2.25;;
35602;SDS011;21725;50.836;4.368;2023-04-25T19:14:29;9.18;;;3.05;;